sensor_id;sensor_type;location;lat;lon;timestamp;P1;durP1;ratioP1;P2;durP2;ratioP2
4248;SDS011;8404;48.752;12.922;2022-08-03T00:01:35;2.60;;;2.40;;
4248;SDS011;8404;48.752;12.922;2022-08-03T00:04:04;2.97;;;2.53;;
4248;SDS011;8404;48.752;12.922;2022-08-03T00:06:34;4.47;;;2.75;;
4248;SDS011;8404;48.752;12.922;2022-08-03T00:09:03;3.25;;;2.95;;
4248;SDS011;8404;48.752;12.922;2022-08-03T00:11:33;2.80;;;2.50;;
4248;SDS011;8404;48.752;12.922;2022-08-03T00:14:02;3.15;;;2.65;;
4248;SDS011;8404;48.752;12.922;2022-08-03T00:16:30;3.13;;;2.83;;
4248;SDS011;8404;48.752;12.922;2022-08-03T00:18:59;2.97;;;2.47;;
4248;SDS011;8404;48.752;12.922;2022-08-03T00:21:27;3.55;;;2.65;;
4248;SDS011;8404;48.752;12.922;2022-08-03T00:23:56;4.10;;;2.70;;
4248;SDS011;8404;48.752;12.922;2022-08-03T00:26:24;3.67;;;2.42;;
4248;SDS011;8404;48.752;12.922;2022-08-03T00:28:53;3.83;;;2.97;;
4248;SDS011;8404;48.752;12.922;2022-08-03T00:31:22;3.35;;;2.85;;
4248;SDS011;8404;48.752;12.922;2022-08-03T00:34:10;3.20;;;2.72;;
4248;SDS011;8404;48.752;12.922;2022-08-03T00:36:38;3.58;;;2.88;;
4248;SDS011;8404;48.752;12.922;2022-08-03T00:39:07;3.38;;;3.08;;
4248;SDS011;8404;48.752;12.922;2022-08-03T00:41:35;3.95;;;3.00;;
4248;SDS011;8404;48.752;12.922;2022-08-03T00:44:04;3.85;;;2.78;;
4248;SDS011;8404;48.752;12.922;2022-08-03T00:46:33;3.55;;;2.95;;
4248;SDS011;8404;48.752;12.922;2022-08-03T00:49:01;4.88;;;2.97;;
4248;SDS011;8404;48.752;12.922;2022-08-03T00:51:29;3.75;;;2.70;;
4248;SDS011;8404;48.752;12.922;2022-08-03T00:54:00;3.70;;;3.00;;
4248;SDS011;8404;48.752;12.922;2022-08-03T00:56:28;2.58;;;2.13;;
4248;SDS011;8404;48.752;12.922;2022-08-03T00:58:56;4.20;;;2.70;;
4248;SDS011;8404;48.752;12.922;2022-08-03T01:01:27;4.65;;;3.00;;
4248;SDS011;8404;48.752;12.922;2022-08-03T01:03:58;3.13;;;2.78;;
4248;SDS011;8404;48.752;12.922;2022-08-03T01:06:30;4.32;;;2.70;;
4248;SDS011;8404;48.752;12.922;2022-08-03T01:09:08;4.18;;;2.92;;
4248;SDS011;8404;48.752;12.922;2022-08-03T01:11:45;3.63;;;3.17;;
4248;SDS011;8404;48.752;12.922;2022-08-03T01:14:29;3.85;;;2.72;;
4248;SDS011;8404;48.752;12.922;2022-08-03T01:17:04;3.80;;;3.20;;
4248;SDS011;8404;48.752;12.922;2022-08-03T01:19:41;4.03;;;3.33;;
4248;SDS011;8404;48.752;12.922;2022-08-03T01:22:33;3.33;;;3.03;;
4248;SDS011;8404;48.752;12.922;2022-08-03T01:25:13;3.40;;;2.88;;
4248;SDS011;8404;48.752;12.922;2022-08-03T01:27:56;3.38;;;3.08;;
4248;SDS011;8404;48.752;12.922;2022-08-03T01:30:38;3.47;;;3.17;;
4248;SDS011;8404;48.752;12.922;2022-08-03T01:33:11;3.75;;;3.38;;
4248;SDS011;8404;48.752;12.922;2022-08-03T01:35:45;3.65;;;3.08;;
4248;SDS011;8404;48.752;12.922;2022-08-03T01:38:17;4.00;;;3.28;;
4248;SDS011;8404;48.752;12.922;2022-08-03T01:40:50;4.85;;;3.15;;
4248;SDS011;8404;48.752;12.922;2022-08-03T01:43:22;3.53;;;3.22;;
4248;SDS011;8404;48.752;12.922;2022-08-03T01:46:15;4.50;;;3.80;;
4248;SDS011;8404;48.752;12.922;2022-08-03T01:48:47;3.65;;;3.30;;
4248;SDS011;8404;48.752;12.922;2022-08-03T01:51:16;3.88;;;3.47;;
4248;SDS011;8404;48.752;12.922;2022-08-03T01:53:47;4.72;;;4.03;;
4248;SDS011;8404;48.752;12.922;2022-08-03T01:56:16;4.43;;;3.80;;
4248;SDS011;8404;48.752;12.922;2022-08-03T01:58:47;3.47;;;3.17;;
4248;SDS011;8404;48.752;12.922;2022-08-03T02:01:18;3.70;;;3.17;;
4248;SDS011;8404;48.752;12.922;2022-08-03T02:03:48;3.28;;;2.88;;
4248;SDS011;8404;48.752;12.922;2022-08-03T02:06:26;4.38;;;3.15;;
4248;SDS011;8404;48.752;12.922;2022-08-03T02:09:19;4.28;;;3.45;;
4248;SDS011;8404;48.752;12.922;2022-08-03T02:11:48;3.28;;;2.97;;
4248;SDS011;8404;48.752;12.922;2022-08-03T02:14:18;3.17;;;2.83;;
4248;SDS011;8404;48.752;12.922;2022-08-03T02:16:50;3.80;;;3.40;;
4248;SDS011;8404;48.752;12.922;2022-08-03T02:19:19;3.40;;;2.97;;
4248;SDS011;8404;48.752;12.922;2022-08-03T02:21:48;4.75;;;3.67;;
4248;SDS011;8404;48.752;12.922;2022-08-03T02:24:26;4.40;;;4.00;;
4248;SDS011;8404;48.752;12.922;2022-08-03T02:26:55;3.83;;;2.90;;
4248;SDS011;8404;48.752;12.922;2022-08-03T02:29:26;4.75;;;3.70;;
4248;SDS011;8404;48.752;12.922;2022-08-03T02:32:07;4.32;;;3.47;;
4248;SDS011;8404;48.752;12.922;2022-08-03T02:34:39;3.67;;;3.38;;
4248;SDS011;8404;48.752;12.922;2022-08-03T02:37:10;4.47;;;4.07;;
4248;SDS011;8404;48.752;12.922;2022-08-03T02:39:41;5.70;;;3.55;;
4248;SDS011;8404;48.752;12.922;2022-08-03T02:42:11;5.35;;;3.83;;
4248;SDS011;8404;48.752;12.922;2022-08-03T02:44:42;3.75;;;3.40;;
4248;SDS011;8404;48.752;12.922;2022-08-03T02:47:16;4.32;;;3.13;;
4248;SDS011;8404;48.752;12.922;2022-08-03T02:49:47;4.07;;;3.17;;
4248;SDS011;8404;48.752;12.922;2022-08-03T02:52:19;5.13;;;4.15;;
4248;SDS011;8404;48.752;12.922;2022-08-03T02:54:49;3.35;;;3.05;;
4248;SDS011;8404;48.752;12.922;2022-08-03T02:57:21;4.53;;;3.67;;
4248;SDS011;8404;48.752;12.922;2022-08-03T02:59:52;4.22;;;3.40;;
4248;SDS011;8404;48.752;12.922;2022-08-03T03:02:23;3.90;;;3.47;;
4248;SDS011;8404;48.752;12.922;2022-08-03T03:04:52;3.80;;;3.38;;
4248;SDS011;8404;48.752;12.922;2022-08-03T03:07:42;3.88;;;3.45;;
4248;SDS011;8404;48.752;12.922;2022-08-03T03:10:17;6.90;;;3.53;;
4248;SDS011;8404;48.752;12.922;2022-08-03T03:12:48;4.15;;;3.65;;
4248;SDS011;8404;48.752;12.922;2022-08-03T03:15:17;3.60;;;3.30;;
4248;SDS011;8404;48.752;12.922;2022-08-03T03:17:47;5.57;;;3.88;;
4248;SDS011;8404;48.752;12.922;2022-08-03T03:20:16;4.22;;;3.83;;
4248;SDS011;8404;48.752;12.922;2022-08-03T03:22:57;4.60;;;3.30;;
4248;SDS011;8404;48.752;12.922;2022-08-03T03:25:26;4.03;;;3.58;;
4248;SDS011;8404;48.752;12.922;2022-08-03T03:27:57;3.90;;;3.50;;
4248;SDS011;8404;48.752;12.922;2022-08-03T03:30:26;3.88;;;3.38;;
4248;SDS011;8404;48.752;12.922;2022-08-03T03:32:57;3.47;;;2.90;;
4248;SDS011;8404;48.752;12.922;2022-08-03T03:35:26;4.13;;;3.33;;
4248;SDS011;8404;48.752;12.922;2022-08-03T03:37:55;5.05;;;3.65;;
4248;SDS011;8404;48.752;12.922;2022-08-03T03:40:23;4.75;;;3.53;;
4248;SDS011;8404;48.752;12.922;2022-08-03T03:42:51;4.45;;;3.70;;
4248;SDS011;8404;48.752;12.922;2022-08-03T03:45:20;6.00;;;3.65;;
4248;SDS011;8404;48.752;12.922;2022-08-03T03:47:49;4.38;;;3.90;;
4248;SDS011;8404;48.752;12.922;2022-08-03T03:50:19;4.32;;;3.92;;
4248;SDS011;8404;48.752;12.922;2022-08-03T03:52:49;6.57;;;4.53;;
4248;SDS011;8404;48.752;12.922;2022-08-03T03:55:17;4.65;;;3.88;;
4248;SDS011;8404;48.752;12.922;2022-08-03T03:57:45;4.68;;;4.22;;
4248;SDS011;8404;48.752;12.922;2022-08-03T04:00:15;3.65;;;3.35;;
4248;SDS011;8404;48.752;12.922;2022-08-03T04:02:44;4.95;;;4.07;;
4248;SDS011;8404;48.752;12.922;2022-08-03T04:05:13;5.05;;;3.70;;
4248;SDS011;8404;48.752;12.922;2022-08-03T04:08:02;4.38;;;3.65;;
4248;SDS011;8404;48.752;12.922;2022-08-03T04:10:53;4.88;;;3.90;;
4248;SDS011;8404;48.752;12.922;2022-08-03T04:13:28;4.40;;;3.97;;
4248;SDS011;8404;48.752;12.922;2022-08-03T04:16:13;5.40;;;3.83;;
4248;SDS011;8404;48.752;12.922;2022-08-03T04:18:45;4.63;;;4.10;;
4248;SDS011;8404;48.752;12.922;2022-08-03T04:21:17;3.63;;;3.33;;
4248;SDS011;8404;48.752;12.922;2022-08-03T04:23:50;5.65;;;3.78;;
4248;SDS011;8404;48.752;12.922;2022-08-03T04:26:21;4.38;;;3.78;;
4248;SDS011;8404;48.752;12.922;2022-08-03T04:28:54;4.32;;;3.90;;
4248;SDS011;8404;48.752;12.922;2022-08-03T04:31:22;4.65;;;4.25;;
4248;SDS011;8404;48.752;12.922;2022-08-03T04:33:52;4.05;;;3.67;;
4248;SDS011;8404;48.752;12.922;2022-08-03T04:36:22;4.85;;;3.92;;
4248;SDS011;8404;48.752;12.922;2022-08-03T04:38:55;4.15;;;3.75;;
4248;SDS011;8404;48.752;12.922;2022-08-03T04:41:27;5.13;;;4.07;;
4248;SDS011;8404;48.752;12.922;2022-08-03T04:43:57;5.00;;;4.50;;
4248;SDS011;8404;48.752;12.922;2022-08-03T04:46:27;5.22;;;3.88;;
4248;SDS011;8404;48.752;12.922;2022-08-03T04:48:58;4.80;;;4.40;;
4248;SDS011;8404;48.752;12.922;2022-08-03T04:51:27;4.53;;;3.78;;
4248;SDS011;8404;48.752;12.922;2022-08-03T04:53:57;4.53;;;4.13;;
4248;SDS011;8404;48.752;12.922;2022-08-03T04:56:25;5.18;;;4.00;;
4248;SDS011;8404;48.752;12.922;2022-08-03T04:58:54;5.35;;;3.72;;
4248;SDS011;8404;48.752;12.922;2022-08-03T05:01:22;5.47;;;3.72;;
4248;SDS011;8404;48.752;12.922;2022-08-03T05:03:50;4.85;;;3.88;;
4248;SDS011;8404;48.752;12.922;2022-08-03T05:06:18;5.53;;;4.22;;
4248;SDS011;8404;48.752;12.922;2022-08-03T05:08:50;4.82;;;3.55;;
4248;SDS011;8404;48.752;12.922;2022-08-03T05:11:20;5.47;;;4.25;;
4248;SDS011;8404;48.752;12.922;2022-08-03T05:13:48;4.60;;;3.90;;
4248;SDS011;8404;48.752;12.922;2022-08-03T05:16:16;4.25;;;3.58;;
4248;SDS011;8404;48.752;12.922;2022-08-03T05:18:44;4.65;;;3.53;;
4248;SDS011;8404;48.752;12.922;2022-08-03T05:21:12;4.05;;;3.22;;
4248;SDS011;8404;48.752;12.922;2022-08-03T05:23:42;4.45;;;4.05;;
4248;SDS011;8404;48.752;12.922;2022-08-03T05:26:11;4.35;;;3.13;;
4248;SDS011;8404;48.752;12.922;2022-08-03T05:28:40;4.88;;;4.20;;
4248;SDS011;8404;48.752;12.922;2022-08-03T05:31:17;3.63;;;3.28;;
4248;SDS011;8404;48.752;12.922;2022-08-03T05:33:45;3.53;;;3.22;;
4248;SDS011;8404;48.752;12.922;2022-08-03T05:36:14;4.60;;;3.53;;
4248;SDS011;8404;48.752;12.922;2022-08-03T05:38:42;3.92;;;3.55;;
4248;SDS011;8404;48.752;12.922;2022-08-03T05:41:11;4.80;;;4.03;;
4248;SDS011;8404;48.752;12.922;2022-08-03T05:43:49;5.88;;;4.47;;
4248;SDS011;8404;48.752;12.922;2022-08-03T05:46:19;4.00;;;3.53;;
4248;SDS011;8404;48.752;12.922;2022-08-03T05:48:47;4.20;;;3.80;;
4248;SDS011;8404;48.752;12.922;2022-08-03T05:51:16;3.95;;;3.53;;
4248;SDS011;8404;48.752;12.922;2022-08-03T05:53:44;3.75;;;3.20;;
4248;SDS011;8404;48.752;12.922;2022-08-03T05:56:12;4.70;;;3.42;;
4248;SDS011;8404;48.752;12.922;2022-08-03T05:58:43;4.60;;;4.20;;
4248;SDS011;8404;48.752;12.922;2022-08-03T06:01:14;3.65;;;3.25;;
4248;SDS011;8404;48.752;12.922;2022-08-03T06:03:43;3.92;;;3.53;;
4248;SDS011;8404;48.752;12.922;2022-08-03T06:06:12;4.78;;;3.45;;
4248;SDS011;8404;48.752;12.922;2022-08-03T06:08:40;4.38;;;2.90;;
4248;SDS011;8404;48.752;12.922;2022-08-03T06:11:09;4.65;;;3.30;;
4248;SDS011;8404;48.752;12.922;2022-08-03T06:13:38;4.07;;;3.40;;
4248;SDS011;8404;48.752;12.922;2022-08-03T06:16:07;3.97;;;3.08;;
4248;SDS011;8404;48.752;12.922;2022-08-03T06:18:37;3.45;;;3.03;;
4248;SDS011;8404;48.752;12.922;2022-08-03T06:21:06;4.22;;;3.17;;
4248;SDS011;8404;48.752;12.922;2022-08-03T06:23:42;3.63;;;2.97;;
4248;SDS011;8404;48.752;12.922;2022-08-03T06:26:21;3.05;;;2.70;;
4248;SDS011;8404;48.752;12.922;2022-08-03T06:28:50;3.42;;;2.63;;
4248;SDS011;8404;48.752;12.922;2022-08-03T06:31:20;4.70;;;2.83;;
4248;SDS011;8404;48.752;12.922;2022-08-03T06:33:59;5.13;;;2.90;;
4248;SDS011;8404;48.752;12.922;2022-08-03T06:36:48;3.58;;;2.95;;
4248;SDS011;8404;48.752;12.922;2022-08-03T06:39:18;3.10;;;2.50;;
4248;SDS011;8404;48.752;12.922;2022-08-03T06:41:50;2.83;;;2.35;;
4248;SDS011;8404;48.752;12.922;2022-08-03T06:44:18;4.47;;;2.60;;
4248;SDS011;8404;48.752;12.922;2022-08-03T06:46:47;3.70;;;2.22;;
4248;SDS011;8404;48.752;12.922;2022-08-03T06:49:17;3.63;;;2.30;;
4248;SDS011;8404;48.752;12.922;2022-08-03T06:51:46;2.65;;;2.33;;
4248;SDS011;8404;48.752;12.922;2022-08-03T06:54:31;3.15;;;2.03;;
4248;SDS011;8404;48.752;12.922;2022-08-03T06:57:01;3.38;;;2.40;;
4248;SDS011;8404;48.752;12.922;2022-08-03T06:59:29;3.55;;;2.63;;
4248;SDS011;8404;48.752;12.922;2022-08-03T07:02:18;2.15;;;1.88;;
4248;SDS011;8404;48.752;12.922;2022-08-03T07:04:47;4.00;;;2.50;;
4248;SDS011;8404;48.752;12.922;2022-08-03T07:07:16;3.20;;;2.22;;
4248;SDS011;8404;48.752;12.922;2022-08-03T07:09:44;2.63;;;1.98;;
4248;SDS011;8404;48.752;12.922;2022-08-03T07:12:23;2.83;;;1.90;;
4248;SDS011;8404;48.752;12.922;2022-08-03T07:14:52;3.65;;;2.28;;
4248;SDS011;8404;48.752;12.922;2022-08-03T07:17:26;2.95;;;2.08;;
4248;SDS011;8404;48.752;12.922;2022-08-03T07:19:56;5.22;;;1.98;;
4248;SDS011;8404;48.752;12.922;2022-08-03T07:22:24;3.72;;;1.77;;
4248;SDS011;8404;48.752;12.922;2022-08-03T07:24:53;2.30;;;1.73;;
4248;SDS011;8404;48.752;12.922;2022-08-03T07:27:22;3.53;;;1.80;;
4248;SDS011;8404;48.752;12.922;2022-08-03T07:29:52;2.83;;;2.05;;
4248;SDS011;8404;48.752;12.922;2022-08-03T07:32:20;2.25;;;1.75;;
4248;SDS011;8404;48.752;12.922;2022-08-03T07:34:48;2.40;;;1.70;;
4248;SDS011;8404;48.752;12.922;2022-08-03T07:37:18;2.47;;;1.92;;
4248;SDS011;8404;48.752;12.922;2022-08-03T07:39:46;2.83;;;1.83;;
4248;SDS011;8404;48.752;12.922;2022-08-03T07:42:14;2.15;;;1.55;;
4248;SDS011;8404;48.752;12.922;2022-08-03T07:44:43;2.63;;;1.70;;
4248;SDS011;8404;48.752;12.922;2022-08-03T07:47:11;2.67;;;1.85;;
4248;SDS011;8404;48.752;12.922;2022-08-03T07:49:48;2.88;;;2.17;;
4248;SDS011;8404;48.752;12.922;2022-08-03T07:52:17;2.75;;;1.80;;
4248;SDS011;8404;48.752;12.922;2022-08-03T07:55:16;3.30;;;1.83;;
4248;SDS011;8404;48.752;12.922;2022-08-03T07:57:46;2.97;;;1.90;;
4248;SDS011;8404;48.752;12.922;2022-08-03T08:00:15;3.08;;;1.90;;
4248;SDS011;8404;48.752;12.922;2022-08-03T08:02:45;2.35;;;1.80;;
4248;SDS011;8404;48.752;12.922;2022-08-03T08:05:13;3.67;;;1.98;;
4248;SDS011;8404;48.752;12.922;2022-08-03T08:07:43;2.60;;;1.70;;
4248;SDS011;8404;48.752;12.922;2022-08-03T08:10:17;4.20;;;1.75;;
4248;SDS011;8404;48.752;12.922;2022-08-03T08:12:45;4.00;;;2.13;;
4248;SDS011;8404;48.752;12.922;2022-08-03T08:15:13;3.85;;;1.63;;
4248;SDS011;8404;48.752;12.922;2022-08-03T08:17:42;4.38;;;1.98;;
4248;SDS011;8404;48.752;12.922;2022-08-03T08:20:15;2.25;;;1.52;;
4248;SDS011;8404;48.752;12.922;2022-08-03T08:22:56;2.55;;;1.80;;
4248;SDS011;8404;48.752;12.922;2022-08-03T08:25:27;2.85;;;1.73;;
4248;SDS011;8404;48.752;12.922;2022-08-03T08:27:57;2.83;;;1.73;;
4248;SDS011;8404;48.752;12.922;2022-08-03T08:30:47;3.45;;;1.50;;
4248;SDS011;8404;48.752;12.922;2022-08-03T08:33:16;1.95;;;1.42;;
4248;SDS011;8404;48.752;12.922;2022-08-03T08:35:49;2.33;;;1.60;;
4248;SDS011;8404;48.752;12.922;2022-08-03T08:38:21;2.90;;;1.77;;
4248;SDS011;8404;48.752;12.922;2022-08-03T08:40:50;2.40;;;1.67;;
4248;SDS011;8404;48.752;12.922;2022-08-03T08:43:18;4.57;;;1.70;;
4248;SDS011;8404;48.752;12.922;2022-08-03T08:45:47;3.03;;;1.52;;
4248;SDS011;8404;48.752;12.922;2022-08-03T08:48:17;2.88;;;1.70;;
4248;SDS011;8404;48.752;12.922;2022-08-03T08:50:51;2.20;;;1.38;;
4248;SDS011;8404;48.752;12.922;2022-08-03T08:53:21;1.80;;;1.15;;
4248;SDS011;8404;48.752;12.922;2022-08-03T08:55:53;3.90;;;1.90;;
4248;SDS011;8404;48.752;12.922;2022-08-03T08:58:27;1.48;;;1.20;;
4248;SDS011;8404;48.752;12.922;2022-08-03T09:00:58;1.40;;;1.10;;
4248;SDS011;8404;48.752;12.922;2022-08-03T09:03:26;2.65;;;1.23;;
4248;SDS011;8404;48.752;12.922;2022-08-03T09:05:57;2.35;;;1.30;;
4248;SDS011;8404;48.752;12.922;2022-08-03T09:08:29;1.90;;;1.02;;
4248;SDS011;8404;48.752;12.922;2022-08-03T09:10:58;1.75;;;0.95;;
4248;SDS011;8404;48.752;12.922;2022-08-03T09:13:26;2.35;;;1.10;;
4248;SDS011;8404;48.752;12.922;2022-08-03T09:16:09;1.55;;;1.05;;
4248;SDS011;8404;48.752;12.922;2022-08-03T09:18:41;3.72;;;2.03;;
4248;SDS011;8404;48.752;12.922;2022-08-03T09:21:15;1.83;;;1.10;;
4248;SDS011;8404;48.752;12.922;2022-08-03T09:24:04;3.35;;;1.40;;
4248;SDS011;8404;48.752;12.922;2022-08-03T09:26:51;2.10;;;1.27;;
4248;SDS011;8404;48.752;12.922;2022-08-03T09:29:19;1.20;;;1.00;;
4248;SDS011;8404;48.752;12.922;2022-08-03T09:31:48;1.75;;;1.02;;
4248;SDS011;8404;48.752;12.922;2022-08-03T09:34:25;1.77;;;1.15;;
4248;SDS011;8404;48.752;12.922;2022-08-03T09:36:54;1.83;;;1.13;;
4248;SDS011;8404;48.752;12.922;2022-08-03T09:39:25;2.05;;;1.10;;
4248;SDS011;8404;48.752;12.922;2022-08-03T09:42:07;2.85;;;1.23;;
4248;SDS011;8404;48.752;12.922;2022-08-03T09:44:41;2.00;;;0.88;;
4248;SDS011;8404;48.752;12.922;2022-08-03T09:47:11;2.28;;;1.00;;
4248;SDS011;8404;48.752;12.922;2022-08-03T09:49:55;1.85;;;0.95;;
4248;SDS011;8404;48.752;12.922;2022-08-03T09:52:28;1.55;;;0.88;;
4248;SDS011;8404;48.752;12.922;2022-08-03T09:55:19;1.80;;;0.88;;
4248;SDS011;8404;48.752;12.922;2022-08-03T09:58:10;1.40;;;1.02;;
4248;SDS011;8404;48.752;12.922;2022-08-03T10:00:53;0.80;;;0.60;;
4248;SDS011;8404;48.752;12.922;2022-08-03T10:03:23;1.67;;;0.60;;
4248;SDS011;8404;48.752;12.922;2022-08-03T10:05:52;1.60;;;0.80;;
4248;SDS011;8404;48.752;12.922;2022-08-03T10:08:25;2.35;;;1.08;;
4248;SDS011;8404;48.752;12.922;2022-08-03T10:10:55;1.88;;;1.10;;
4248;SDS011;8404;48.752;12.922;2022-08-03T10:13:25;1.40;;;0.80;;
4248;SDS011;8404;48.752;12.922;2022-08-03T10:15:54;1.30;;;0.93;;
4248;SDS011;8404;48.752;12.922;2022-08-03T10:18:42;1.80;;;1.05;;
4248;SDS011;8404;48.752;12.922;2022-08-03T10:21:10;1.98;;;1.00;;
4248;SDS011;8404;48.752;12.922;2022-08-03T10:23:43;1.23;;;0.90;;
4248;SDS011;8404;48.752;12.922;2022-08-03T10:26:15;3.00;;;1.20;;
4248;SDS011;8404;48.752;12.922;2022-08-03T10:28:48;1.50;;;1.15;;
4248;SDS011;8404;48.752;12.922;2022-08-03T10:31:19;1.67;;;1.00;;
4248;SDS011;8404;48.752;12.922;2022-08-03T10:33:50;2.25;;;1.02;;
4248;SDS011;8404;48.752;12.922;2022-08-03T10:36:23;1.83;;;1.00;;
4248;SDS011;8404;48.752;12.922;2022-08-03T10:38:57;1.97;;;1.13;;
4248;SDS011;8404;48.752;12.922;2022-08-03T10:41:30;1.80;;;1.27;;
4248;SDS011;8404;48.752;12.922;2022-08-03T10:44:02;2.58;;;1.15;;
4248;SDS011;8404;48.752;12.922;2022-08-03T10:46:32;1.45;;;1.08;;
4248;SDS011;8404;48.752;12.922;2022-08-03T10:49:11;1.85;;;1.20;;
4248;SDS011;8404;48.752;12.922;2022-08-03T10:51:41;1.55;;;0.90;;
4248;SDS011;8404;48.752;12.922;2022-08-03T11:00:26;0.77;;;0.50;;
4248;SDS011;8404;48.752;12.922;2022-08-03T11:03:06;1.92;;;1.35;;
4248;SDS011;8404;48.752;12.922;2022-08-03T11:05:36;1.92;;;1.33;;
4248;SDS011;8404;48.752;12.922;2022-08-03T11:08:22;1.55;;;1.00;;
4248;SDS011;8404;48.752;12.922;2022-08-03T11:10:57;1.50;;;0.80;;
4248;SDS011;8404;48.752;12.922;2022-08-03T11:13:28;2.28;;;1.13;;
4248;SDS011;8404;48.752;12.922;2022-08-03T11:16:00;1.80;;;0.90;;
4248;SDS011;8404;48.752;12.922;2022-08-03T11:18:54;2.40;;;0.68;;
4248;SDS011;8404;48.752;12.922;2022-08-03T11:27:31;1.43;;;1.00;;
4248;SDS011;8404;48.752;12.922;2022-08-03T11:35:18;1.40;;;0.70;;
4248;SDS011;8404;48.752;12.922;2022-08-03T11:38:06;1.20;;;0.75;;
4248;SDS011;8404;48.752;12.922;2022-08-03T11:40:36;2.15;;;0.98;;
4248;SDS011;8404;48.752;12.922;2022-08-03T11:43:07;1.00;;;0.77;;
4248;SDS011;8404;48.752;12.922;2022-08-03T11:45:37;1.50;;;0.90;;
4248;SDS011;8404;48.752;12.922;2022-08-03T11:48:22;2.08;;;0.85;;
4248;SDS011;8404;48.752;12.922;2022-08-03T11:50:54;3.00;;;0.80;;
4248;SDS011;8404;48.752;12.922;2022-08-03T11:53:23;1.35;;;0.70;;
4248;SDS011;8404;48.752;12.922;2022-08-03T11:55:51;3.63;;;0.90;;
4248;SDS011;8404;48.752;12.922;2022-08-03T11:58:20;1.77;;;0.82;;
4248;SDS011;8404;48.752;12.922;2022-08-03T12:01:11;1.25;;;0.70;;
4248;SDS011;8404;48.752;12.922;2022-08-03T12:03:48;1.25;;;0.70;;
4248;SDS011;8404;48.752;12.922;2022-08-03T12:06:17;1.10;;;0.82;;
4248;SDS011;8404;48.752;12.922;2022-08-03T12:08:46;2.00;;;0.95;;
4248;SDS011;8404;48.752;12.922;2022-08-03T12:11:14;1.33;;;0.68;;
4248;SDS011;8404;48.752;12.922;2022-08-03T12:13:43;1.17;;;0.70;;
4248;SDS011;8404;48.752;12.922;2022-08-03T12:16:33;2.35;;;1.00;;
4248;SDS011;8404;48.752;12.922;2022-08-03T12:19:02;1.33;;;0.77;;
4248;SDS011;8404;48.752;12.922;2022-08-03T12:21:32;1.63;;;1.13;;
4248;SDS011;8404;48.752;12.922;2022-08-03T12:24:00;1.33;;;1.00;;
4248;SDS011;8404;48.752;12.922;2022-08-03T12:26:30;1.58;;;0.90;;
4248;SDS011;8404;48.752;12.922;2022-08-03T12:29:22;7.32;;;1.42;;
4248;SDS011;8404;48.752;12.922;2022-08-03T12:31:52;2.72;;;0.80;;
4248;SDS011;8404;48.752;12.922;2022-08-03T12:34:21;2.50;;;1.02;;
4248;SDS011;8404;48.752;12.922;2022-08-03T12:36:56;1.52;;;1.00;;
4248;SDS011;8404;48.752;12.922;2022-08-03T12:39:27;2.28;;;1.10;;
4248;SDS011;8404;48.752;12.922;2022-08-03T12:41:57;1.23;;;0.80;;
4248;SDS011;8404;48.752;12.922;2022-08-03T12:44:28;2.78;;;1.00;;
4248;SDS011;8404;48.752;12.922;2022-08-03T12:46:59;1.70;;;0.88;;
4248;SDS011;8404;48.752;12.922;2022-08-03T12:49:28;1.38;;;0.90;;
4248;SDS011;8404;48.752;12.922;2022-08-03T12:52:11;1.95;;;0.82;;
4248;SDS011;8404;48.752;12.922;2022-08-03T12:54:40;1.15;;;1.05;;
4248;SDS011;8404;48.752;12.922;2022-08-03T12:57:09;2.17;;;1.20;;
4248;SDS011;8404;48.752;12.922;2022-08-03T12:59:41;2.00;;;1.02;;
4248;SDS011;8404;48.752;12.922;2022-08-03T13:02:20;2.00;;;1.35;;
4248;SDS011;8404;48.752;12.922;2022-08-03T13:04:50;1.48;;;1.00;;
4248;SDS011;8404;48.752;12.922;2022-08-03T13:07:20;1.77;;;1.00;;
4248;SDS011;8404;48.752;12.922;2022-08-03T13:09:50;1.90;;;0.93;;
4248;SDS011;8404;48.752;12.922;2022-08-03T13:12:19;3.80;;;1.42;;
4248;SDS011;8404;48.752;12.922;2022-08-03T13:14:49;2.45;;;1.13;;
4248;SDS011;8404;48.752;12.922;2022-08-03T13:17:20;1.52;;;1.02;;
4248;SDS011;8404;48.752;12.922;2022-08-03T13:19:48;1.50;;;0.90;;
4248;SDS011;8404;48.752;12.922;2022-08-03T13:22:18;1.45;;;1.02;;
4248;SDS011;8404;48.752;12.922;2022-08-03T13:24:48;1.65;;;1.15;;
4248;SDS011;8404;48.752;12.922;2022-08-03T13:27:17;1.70;;;1.00;;
4248;SDS011;8404;48.752;12.922;2022-08-03T13:30:06;5.55;;;1.40;;
4248;SDS011;8404;48.752;12.922;2022-08-03T13:32:36;1.73;;;0.93;;
4248;SDS011;8404;48.752;12.922;2022-08-03T13:35:05;1.88;;;0.93;;
4248;SDS011;8404;48.752;12.922;2022-08-03T13:37:34;1.92;;;1.23;;
4248;SDS011;8404;48.752;12.922;2022-08-03T13:40:03;2.03;;;1.05;;
4248;SDS011;8404;48.752;12.922;2022-08-03T13:42:37;1.52;;;0.82;;
4248;SDS011;8404;48.752;12.922;2022-08-03T13:45:05;1.88;;;1.05;;
4248;SDS011;8404;48.752;12.922;2022-08-03T13:47:34;1.67;;;1.00;;
4248;SDS011;8404;48.752;12.922;2022-08-03T13:50:05;3.65;;;1.23;;
4248;SDS011;8404;48.752;12.922;2022-08-03T13:52:34;2.10;;;1.10;;
4248;SDS011;8404;48.752;12.922;2022-08-03T13:55:03;2.05;;;1.10;;
4248;SDS011;8404;48.752;12.922;2022-08-03T13:57:33;1.75;;;0.90;;
4248;SDS011;8404;48.752;12.922;2022-08-03T14:00:21;1.40;;;0.80;;
4248;SDS011;8404;48.752;12.922;2022-08-03T14:02:55;1.42;;;0.77;;
4248;SDS011;8404;48.752;12.922;2022-08-03T14:05:32;1.73;;;1.13;;
4248;SDS011;8404;48.752;12.922;2022-08-03T14:08:01;1.05;;;0.50;;
4248;SDS011;8404;48.752;12.922;2022-08-03T14:10:32;1.23;;;0.70;;
4248;SDS011;8404;48.752;12.922;2022-08-03T14:13:01;3.35;;;0.77;;
4248;SDS011;8404;48.752;12.922;2022-08-03T14:15:29;1.27;;;0.70;;
4248;SDS011;8404;48.752;12.922;2022-08-03T14:18:03;1.13;;;0.73;;
4248;SDS011;8404;48.752;12.922;2022-08-03T14:20:39;1.27;;;0.50;;
4248;SDS011;8404;48.752;12.922;2022-08-03T14:23:19;0.95;;;0.60;;
4248;SDS011;8404;48.752;12.922;2022-08-03T14:25:47;0.77;;;0.60;;
4248;SDS011;8404;48.752;12.922;2022-08-03T14:28:18;1.17;;;0.50;;
4248;SDS011;8404;48.752;12.922;2022-08-03T14:30:49;0.63;;;0.50;;
4248;SDS011;8404;48.752;12.922;2022-08-03T14:33:18;1.02;;;0.50;;
4248;SDS011;8404;48.752;12.922;2022-08-03T14:35:47;1.33;;;0.73;;
4248;SDS011;8404;48.752;12.922;2022-08-03T14:38:16;0.85;;;0.50;;
4248;SDS011;8404;48.752;12.922;2022-08-03T14:40:44;1.02;;;0.63;;
4248;SDS011;8404;48.752;12.922;2022-08-03T14:43:12;1.13;;;0.60;;
4248;SDS011;8404;48.752;12.922;2022-08-03T14:45:43;1.10;;;0.70;;
4248;SDS011;8404;48.752;12.922;2022-08-03T14:48:11;1.05;;;0.60;;
4248;SDS011;8404;48.752;12.922;2022-08-03T14:51:00;0.75;;;0.40;;
4248;SDS011;8404;48.752;12.922;2022-08-03T14:53:28;1.60;;;0.57;;
4248;SDS011;8404;48.752;12.922;2022-08-03T14:55:56;0.60;;;0.40;;
4248;SDS011;8404;48.752;12.922;2022-08-03T14:58:24;1.40;;;0.60;;
4248;SDS011;8404;48.752;12.922;2022-08-03T15:00:53;2.42;;;0.73;;
4248;SDS011;8404;48.752;12.922;2022-08-03T15:03:22;0.95;;;0.60;;
4248;SDS011;8404;48.752;12.922;2022-08-03T15:05:51;1.10;;;0.50;;
4248;SDS011;8404;48.752;12.922;2022-08-03T15:08:22;1.27;;;0.50;;
4248;SDS011;8404;48.752;12.922;2022-08-03T15:10:52;0.65;;;0.43;;
4248;SDS011;8404;48.752;12.922;2022-08-03T15:13:20;1.20;;;0.50;;
4248;SDS011;8404;48.752;12.922;2022-08-03T15:15:50;1.65;;;0.50;;
4248;SDS011;8404;48.752;12.922;2022-08-03T15:18:18;0.47;;;0.38;;
4248;SDS011;8404;48.752;12.922;2022-08-03T15:20:46;1.38;;;0.50;;
4248;SDS011;8404;48.752;12.922;2022-08-03T15:23:16;0.70;;;0.50;;
4248;SDS011;8404;48.752;12.922;2022-08-03T15:25:46;0.43;;;0.40;;
4248;SDS011;8404;48.752;12.922;2022-08-03T15:28:34;0.80;;;0.52;;
4248;SDS011;8404;48.752;12.922;2022-08-03T15:31:03;1.48;;;0.40;;
4248;SDS011;8404;48.752;12.922;2022-08-03T15:33:32;0.73;;;0.40;;
4248;SDS011;8404;48.752;12.922;2022-08-03T15:36:00;0.85;;;0.60;;
4248;SDS011;8404;48.752;12.922;2022-08-03T15:38:29;0.95;;;0.57;;
4248;SDS011;8404;48.752;12.922;2022-08-03T15:40:58;1.20;;;0.70;;
4248;SDS011;8404;48.752;12.922;2022-08-03T15:43:27;1.00;;;0.50;;
4248;SDS011;8404;48.752;12.922;2022-08-03T15:45:55;0.73;;;0.50;;
4248;SDS011;8404;48.752;12.922;2022-08-03T15:48:44;1.20;;;0.55;;